createdAt,value
2022-10-11T00:01:09.689Z,30.40
2022-10-11T00:03:40.042Z,30.40
2022-10-11T00:06:10.687Z,30.39
2022-10-11T00:08:43.053Z,30.40
2022-10-11T00:11:13.789Z,30.38
2022-10-11T00:13:43.948Z,30.37
2022-10-11T00:16:15.996Z,30.38
2022-10-11T00:18:46.196Z,30.38
2022-10-11T00:21:24.243Z,30.36
2022-10-11T00:23:56.539Z,30.35
2022-10-11T00:26:26.903Z,30.32
2022-10-11T00:28:57.027Z,30.31
2022-10-11T00:31:28.370Z,30.31
2022-10-11T00:34:00.260Z,30.30
2022-10-11T00:36:30.755Z,30.28
2022-10-11T00:39:03.086Z,30.25
2022-10-11T00:41:33.587Z,30.23
2022-10-11T00:44:20.983Z,30.20
2022-10-11T00:46:59.074Z,30.16
2022-10-11T00:49:37.929Z,30.12
2022-10-11T00:52:17.580Z,30.10
2022-10-11T00:54:51.760Z,30.05
2022-10-11T00:57:27.008Z,30.02
2022-10-11T00:59:59.508Z,30.02
2022-10-11T01:02:30.987Z,30.02
2022-10-11T01:05:25.636Z,30.04
2022-10-11T01:07:52.917Z,30.05
2022-10-11T01:10:25.645Z,30.06
2022-10-11T01:13:11.255Z,30.06
2022-10-11T01:15:53.113Z,30.06
2022-10-11T01:18:32.693Z,30.05
2022-10-11T01:21:13.868Z,30.02
2022-10-11T01:24:34.795Z,30.00
2022-10-11T01:27:57.943Z,29.95
2022-10-11T01:30:32.619Z,29.94
2022-10-11T01:33:23.542Z,29.94
2022-10-11T01:36:08.261Z,29.92
2022-10-11T01:38:46.875Z,29.92
2022-10-11T01:41:26.757Z,29.91
2022-10-11T01:44:02.966Z,29.88
2022-10-11T01:46:36.883Z,29.86
2022-10-11T01:49:08.067Z,29.84
2022-10-11T01:51:46.983Z,29.83
2022-10-11T01:55:04.392Z,29.83
2022-10-11T01:57:57.302Z,29.82
2022-10-11T02:00:31.768Z,29.84
2022-10-11T02:03:29.458Z,29.85
2022-10-11T02:06:08.316Z,29.88
2022-10-11T02:09:04.359Z,29.89
2022-10-11T02:11:39.898Z,29.90
2022-10-11T02:14:16.637Z,29.93
2022-10-11T02:16:51.926Z,29.95
2022-10-11T02:19:32.526Z,29.96
2022-10-11T02:22:08.892Z,29.97
2022-10-11T02:24:44.944Z,29.97
2022-10-11T02:27:18.213Z,29.97
2022-10-11T02:29:51.990Z,29.97
2022-10-11T02:32:23.947Z,29.95
2022-10-11T02:34:58.835Z,29.94
2022-10-11T02:37:38.520Z,29.93
2022-10-11T02:40:18.346Z,29.91
2022-10-11T02:42:55.434Z,29.89
2022-10-11T02:45:34.277Z,29.87
2022-10-11T02:48:05.564Z,29.85
2022-10-11T02:50:38.016Z,29.84
2022-10-11T02:53:08.030Z,29.81
2022-10-11T02:55:38.701Z,29.79
2022-10-11T02:58:09.127Z,29.77
2022-10-11T03:00:39.304Z,29.76
2022-10-11T03:03:09.671Z,29.76
2022-10-11T03:05:42.806Z,29.78
2022-10-11T03:08:15.476Z,29.78
2022-10-11T03:10:46.057Z,29.79
2022-10-11T03:13:18.364Z,29.80
2022-10-11T03:16:02.357Z,29.80
2022-10-11T03:18:34.338Z,29.78
2022-10-11T03:21:07.111Z,29.78
2022-10-11T03:23:36.937Z,29.76
2022-10-11T03:26:08.220Z,29.76
2022-10-11T03:28:39.141Z,29.77
2022-10-11T03:31:09.721Z,29.77
2022-10-11T03:33:40.011Z,29.77
2022-10-11T03:36:12.699Z,29.76
2022-10-11T03:38:43.155Z,29.75
2022-10-11T03:41:13.793Z,29.75
2022-10-11T03:43:44.233Z,29.74
2022-10-11T03:46:14.937Z,29.74
2022-10-11T03:48:45.219Z,29.72
2022-10-11T03:51:18.038Z,29.71
2022-10-11T03:53:48.749Z,29.70
2022-10-11T03:56:19.033Z,29.69
2022-10-11T03:58:49.676Z,29.70
2022-10-11T04:01:20.477Z,29.69
2022-10-11T04:03:50.609Z,29.67
2022-10-11T04:06:23.197Z,29.68
2022-10-11T04:08:53.018Z,29.67
2022-10-11T04:11:23.297Z,29.66
2022-10-11T04:13:53.127Z,29.67
2022-10-11T04:16:23.640Z,29.65
2022-10-11T04:18:53.493Z,29.64
2022-10-11T04:21:26.003Z,29.63
2022-10-11T04:23:56.997Z,29.63
2022-10-11T04:26:26.488Z,29.64
2022-10-11T04:29:05.010Z,29.65
2022-10-11T04:31:35.412Z,29.67
2022-10-11T04:34:05.942Z,29.68
2022-10-11T04:36:39.556Z,29.71
2022-10-11T04:39:11.021Z,29.75
2022-10-11T04:41:41.425Z,29.78
2022-10-11T04:44:11.776Z,29.81
2022-10-11T04:46:42.205Z,29.88
2022-10-11T04:49:12.612Z,29.95
2022-10-11T04:51:44.385Z,30.04
2022-10-11T04:54:14.797Z,30.14
2022-10-11T04:56:45.288Z,30.22
2022-10-11T04:59:15.651Z,30.32
2022-10-11T05:01:46.081Z,30.42
2022-10-11T05:04:16.574Z,30.49
2022-10-11T05:06:48.417Z,30.59
2022-10-11T05:09:18.175Z,30.70
2022-10-11T05:11:48.318Z,30.80
2022-10-11T05:14:18.689Z,30.88
2022-10-11T05:16:48.985Z,30.97
2022-10-11T05:19:20.042Z,31.06
2022-10-11T05:21:52.402Z,31.13
2022-10-11T05:24:23.121Z,31.19
2022-10-11T05:26:53.481Z,31.29
2022-10-11T05:29:23.884Z,31.37
2022-10-11T05:31:54.302Z,31.47
2022-10-11T05:34:24.811Z,31.59
2022-10-11T05:36:57.780Z,31.70
2022-10-11T05:39:30.210Z,31.80
2022-10-11T05:42:00.616Z,31.87
2022-10-11T05:44:31.051Z,31.93
2022-10-11T05:47:01.083Z,31.99
2022-10-11T05:49:31.568Z,32.07
2022-10-11T05:52:03.077Z,32.14
2022-10-11T05:54:33.520Z,32.19
2022-10-11T05:57:03.986Z,32.22
2022-10-11T05:59:34.430Z,32.26
2022-10-11T06:02:04.464Z,32.32
2022-10-11T06:04:38.164Z,32.40
2022-10-11T06:07:10.837Z,32.49
2022-10-11T06:09:40.946Z,32.58
2022-10-11T06:12:11.552Z,32.68
2022-10-11T06:14:41.781Z,32.76
2022-10-11T06:17:12.234Z,32.86
2022-10-11T06:19:42.504Z,32.95
2022-10-11T06:22:16.134Z,33.06
2022-10-11T06:24:47.268Z,33.16
2022-10-11T06:27:17.806Z,33.24
2022-10-11T06:29:48.259Z,33.32
2022-10-11T06:32:19.313Z,33.41
2022-10-11T06:34:49.796Z,33.52
2022-10-11T06:37:22.229Z,33.62
2022-10-11T06:39:53.199Z,33.72
2022-10-11T06:42:23.896Z,33.81
2022-10-11T06:44:54.565Z,33.90
2022-10-11T06:47:25.123Z,33.98
2022-10-11T06:49:56.008Z,34.05
2022-10-11T06:52:28.393Z,34.13
2022-10-11T06:54:58.760Z,34.21
2022-10-11T06:57:30.554Z,34.30
2022-10-11T07:00:00.658Z,34.37
2022-10-11T07:02:30.970Z,34.43
2022-10-11T07:05:01.452Z,34.47
2022-10-11T07:07:33.475Z,34.54
2022-10-11T07:10:03.796Z,34.61
2022-10-11T07:12:33.689Z,34.69
2022-10-11T07:15:03.966Z,34.77
2022-10-11T07:17:34.386Z,34.85
2022-10-11T07:20:10.591Z,34.92
2022-10-11T07:22:43.142Z,34.95
2022-10-11T07:25:13.602Z,34.99
2022-10-11T07:27:43.221Z,35.04
2022-10-11T07:30:14.996Z,35.09
2022-10-11T07:32:45.207Z,35.11
2022-10-11T07:35:15.699Z,35.09
2022-10-11T07:37:48.435Z,35.06
2022-10-11T07:40:18.454Z,35.06
2022-10-11T07:42:49.001Z,35.07
2022-10-11T07:45:19.742Z,35.10
2022-10-11T07:47:49.858Z,35.16
2022-10-11T07:50:20.738Z,35.21
2022-10-11T07:52:53.480Z,35.28
2022-10-11T07:55:23.797Z,35.33
2022-10-11T07:57:55.505Z,35.40
2022-10-11T08:00:25.902Z,35.45
2022-10-11T08:02:55.709Z,35.47
2022-10-11T08:05:25.995Z,35.50
2022-10-11T08:07:58.913Z,35.51
2022-10-11T08:10:30.177Z,35.49
2022-10-11T08:13:04.300Z,35.51
2022-10-11T08:15:34.761Z,35.49
2022-10-11T08:18:05.364Z,35.48
2022-10-11T08:20:36.136Z,35.48
2022-10-11T08:23:08.162Z,35.48
2022-10-11T08:25:41.824Z,35.51
2022-10-11T08:28:16.609Z,35.49
2022-10-11T08:30:52.073Z,35.49
2022-10-11T08:33:24.823Z,35.50
2022-10-11T08:35:57.764Z,35.52
2022-10-11T08:38:29.064Z,35.52
2022-10-11T08:41:01.462Z,35.51
2022-10-11T08:43:46.677Z,35.53
2022-10-11T08:46:18.713Z,35.50
2022-10-11T08:48:51.669Z,35.51
2022-10-11T08:51:31.114Z,35.50
2022-10-11T08:54:09.469Z,35.49
2022-10-11T08:56:42.322Z,35.47
2022-10-11T08:59:32.833Z,35.47
2022-10-11T09:02:21.641Z,35.47
2022-10-11T09:04:57.727Z,35.47
2022-10-11T09:07:47.093Z,35.49
2022-10-11T09:10:57.956Z,35.47
2022-10-11T09:14:00.221Z,35.44
2022-10-11T09:16:50.198Z,35.42
2022-10-11T09:20:14.906Z,35.35
2022-10-11T09:23:00.595Z,35.34
2022-10-11T09:25:37.175Z,35.35
2022-10-11T09:28:30.882Z,35.35
2022-10-11T09:31:01.878Z,35.30
2022-10-11T09:33:39.491Z,35.28
2022-10-11T09:36:24.291Z,35.27
2022-10-11T09:39:06.836Z,35.24
2022-10-11T09:41:48.428Z,35.24
2022-10-11T09:44:26.541Z,35.21
2022-10-11T09:47:00.045Z,35.16
2022-10-11T09:49:50.078Z,35.10
2022-10-11T09:52:23.824Z,35.04
2022-10-11T09:55:00.826Z,35.03
2022-10-11T09:57:34.817Z,35.00
2022-10-11T10:00:25.039Z,34.94
2022-10-11T10:02:58.083Z,34.87
2022-10-11T10:05:30.581Z,34.84
2022-10-11T10:08:25.119Z,34.82
2022-10-11T10:11:05.673Z,34.79
2022-10-11T10:13:47.540Z,34.75
2022-10-11T10:16:32.235Z,34.72
2022-10-11T10:19:05.799Z,34.68
2022-10-11T10:21:39.648Z,34.66
2022-10-11T10:24:21.467Z,34.65
2022-10-11T10:27:19.325Z,34.62
2022-10-11T10:30:13.714Z,34.57
2022-10-11T10:32:56.904Z,34.52
2022-10-11T10:35:35.902Z,34.50
2022-10-11T10:38:26.799Z,34.46
2022-10-11T10:41:02.703Z,34.41
2022-10-11T10:43:38.127Z,34.37
2022-10-11T10:46:58.979Z,34.32
2022-10-11T10:49:53.819Z,34.29
2022-10-11T10:53:01.326Z,34.25
2022-10-11T10:55:42.747Z,34.21
2022-10-11T10:58:45.358Z,34.17
2022-10-11T11:01:25.979Z,34.14
2022-10-11T11:04:24.255Z,34.11
2022-10-11T11:07:06.517Z,34.11
2022-10-11T11:09:53.827Z,34.08
2022-10-11T11:12:43.348Z,34.04
2022-10-11T11:15:29.237Z,34.00
2022-10-11T11:18:30.898Z,33.96
2022-10-11T11:21:41.487Z,33.92
2022-10-11T11:24:37.166Z,33.90
2022-10-11T11:27:37.520Z,33.89
2022-10-11T11:30:14.686Z,33.87
2022-10-11T11:33:08.667Z,33.88
2022-10-11T11:35:44.304Z,33.85
2022-10-11T11:38:35.180Z,33.85
2022-10-11T11:41:16.570Z,33.79
2022-10-11T11:44:03.347Z,33.73
2022-10-11T11:46:40.806Z,33.71
2022-10-11T11:49:23.397Z,33.70
2022-10-11T11:51:54.999Z,33.68
2022-10-11T11:54:39.469Z,33.68
2022-10-11T11:57:27.800Z,33.67
2022-10-11T12:00:08.192Z,33.65
2022-10-11T12:02:53.400Z,33.64
2022-10-11T12:05:28.320Z,33.62
2022-10-11T12:08:03.145Z,33.62
2022-10-11T12:10:41.689Z,33.61
2022-10-11T12:13:37.819Z,33.58
2022-10-11T12:16:14.233Z,33.58
2022-10-11T12:19:02.939Z,33.54
2022-10-11T12:21:36.301Z,33.50
2022-10-11T12:24:15.492Z,33.50
2022-10-11T12:26:50.318Z,33.50
2022-10-11T12:30:00.909Z,33.49
2022-10-11T12:32:53.495Z,33.49
2022-10-11T12:36:04.172Z,33.47
2022-10-11T12:38:40.516Z,33.48
2022-10-11T12:41:54.056Z,33.47
2022-10-11T12:44:28.629Z,33.47
2022-10-11T12:47:35.607Z,33.44
2022-10-11T12:50:22.712Z,33.42
2022-10-11T12:53:08.183Z,33.35
2022-10-11T12:55:54.315Z,33.30
2022-10-11T12:58:31.444Z,33.27
2022-10-11T13:01:37.532Z,33.25
2022-10-11T13:04:13.435Z,33.24
2022-10-11T13:06:50.720Z,33.25
2022-10-11T13:09:31.566Z,33.25
2022-10-11T13:12:08.357Z,33.23
2022-10-11T13:14:44.211Z,33.18
2022-10-11T13:17:23.103Z,33.14
2022-10-11T13:20:08.196Z,33.12
2022-10-11T13:22:41.607Z,33.08
2022-10-11T13:25:18.684Z,33.07
2022-10-11T13:27:50.848Z,33.07
2022-10-11T13:30:26.672Z,33.06
2022-10-11T13:32:58.004Z,33.06
2022-10-11T13:35:36.238Z,33.05
2022-10-11T13:38:11.630Z,33.04
2022-10-11T13:40:42.411Z,33.04
2022-10-11T13:43:17.458Z,33.03
2022-10-11T13:45:47.588Z,33.01
2022-10-11T13:48:20.662Z,33.00
2022-10-11T13:51:14.532Z,32.98
2022-10-11T13:54:05.482Z,32.93
2022-10-11T13:56:44.822Z,32.89
2022-10-11T13:59:22.502Z,32.88
2022-10-11T14:02:00.670Z,32.89
2022-10-11T14:04:43.150Z,32.89
2022-10-11T14:07:29.783Z,32.88
2022-10-11T14:10:00.423Z,32.86
2022-10-11T14:12:36.091Z,32.88
2022-10-11T14:15:08.970Z,32.88
2022-10-11T14:17:45.722Z,32.87
2022-10-11T14:20:22.795Z,32.83
2022-10-11T14:22:56.521Z,32.78
2022-10-11T14:25:27.689Z,32.75
2022-10-11T14:27:58.021Z,32.71
2022-10-11T14:30:31.944Z,32.70
2022-10-11T14:33:06.230Z,32.66
2022-10-11T14:35:38.430Z,32.64
2022-10-11T14:38:14.572Z,32.64
2022-10-11T14:40:45.386Z,32.63
2022-10-11T14:43:16.035Z,32.60
2022-10-11T14:45:46.676Z,32.60
2022-10-11T14:48:26.667Z,32.59
2022-10-11T14:51:10.556Z,32.58
2022-10-11T14:53:46.652Z,32.60
2022-10-11T14:56:21.331Z,32.62
2022-10-11T14:58:52.347Z,32.63
2022-10-11T15:01:22.727Z,32.64
2022-10-11T15:03:53.219Z,32.65
2022-10-11T15:06:26.985Z,32.65
2022-10-11T15:08:59.332Z,32.65
2022-10-11T15:11:30.206Z,32.65
2022-10-11T15:14:00.508Z,32.63
2022-10-11T15:16:30.238Z,32.63
2022-10-11T15:19:00.584Z,32.64
2022-10-11T15:21:32.207Z,32.62
2022-10-11T15:24:04.587Z,32.61
2022-10-11T15:26:35.359Z,32.62
2022-10-11T15:29:05.329Z,32.61
2022-10-11T15:31:35.644Z,32.61
2022-10-11T15:34:05.852Z,32.62
2022-10-11T15:36:35.584Z,32.62
2022-10-11T15:39:25.229Z,32.63
2022-10-11T15:41:56.702Z,32.60
2022-10-11T15:44:27.442Z,32.58
2022-10-11T15:46:57.934Z,32.56
2022-10-11T15:49:28.517Z,32.56
2022-10-11T15:51:58.534Z,32.54
2022-10-11T15:54:30.879Z,32.54
2022-10-11T15:57:01.449Z,32.54
2022-10-11T15:59:31.976Z,32.53
2022-10-11T16:02:02.246Z,32.53
2022-10-11T16:04:32.471Z,32.53
2022-10-11T16:07:03.233Z,32.52
2022-10-11T16:09:34.963Z,32.53
2022-10-11T16:12:05.070Z,32.52
2022-10-11T16:14:35.397Z,32.53
2022-10-11T16:17:06.110Z,32.52
2022-10-11T16:19:35.785Z,32.51
2022-10-11T16:22:06.201Z,32.51
2022-10-11T16:24:37.581Z,32.50
2022-10-11T16:27:08.103Z,32.50
2022-10-11T16:29:38.437Z,32.49
2022-10-11T16:32:09.479Z,32.49
2022-10-11T16:34:39.609Z,32.48
2022-10-11T16:37:13.474Z,32.47
2022-10-11T16:39:46.061Z,32.46
2022-10-11T16:42:16.084Z,32.46
2022-10-11T16:44:47.086Z,32.45
2022-10-11T16:47:19.014Z,32.43
2022-10-11T16:49:49.233Z,32.43
2022-10-11T16:52:19.756Z,32.41
2022-10-11T16:54:55.800Z,32.39
2022-10-11T16:57:26.526Z,32.38
2022-10-11T16:59:57.065Z,32.36
2022-10-11T17:02:32.446Z,32.35
2022-10-11T17:05:03.137Z,32.33
2022-10-11T17:07:34.298Z,32.33
2022-10-11T17:10:07.412Z,32.33
2022-10-11T17:12:39.033Z,32.30
2022-10-11T17:15:14.102Z,32.30
2022-10-11T17:17:44.352Z,32.27
2022-10-11T17:20:14.637Z,32.25
2022-10-11T17:22:44.591Z,32.23
2022-10-11T17:25:16.976Z,32.23
2022-10-11T17:27:47.207Z,32.24
2022-10-11T17:30:17.643Z,32.22
2022-10-11T17:32:48.031Z,32.22
2022-10-11T17:35:18.595Z,32.22
2022-10-11T17:37:50.282Z,32.20
2022-10-11T17:40:22.589Z,32.22
2022-10-11T17:42:52.821Z,32.21
2022-10-11T17:45:22.996Z,32.21
2022-10-11T17:47:53.180Z,32.21
2022-10-11T17:50:23.619Z,32.21
2022-10-11T17:52:54.239Z,32.19
2022-10-11T17:55:26.288Z,32.19
2022-10-11T17:57:56.307Z,32.19
2022-10-11T18:00:26.834Z,32.18
2022-10-11T18:02:57.431Z,32.16
2022-10-11T18:05:27.607Z,32.15
2022-10-11T18:07:57.933Z,32.16
2022-10-11T18:10:30.154Z,32.15
2022-10-11T18:13:05.740Z,32.15
2022-10-11T18:15:36.848Z,32.14
2022-10-11T18:18:07.700Z,32.15
2022-10-11T18:20:37.739Z,32.13
2022-10-11T18:23:08.328Z,32.12
2022-10-11T18:25:40.751Z,32.11
2022-10-11T18:28:10.993Z,32.10
2022-10-11T18:30:45.312Z,32.10
2022-10-11T18:33:17.578Z,32.11
2022-10-11T18:35:48.076Z,32.10
2022-10-11T18:38:18.416Z,32.09
2022-10-11T18:40:50.143Z,32.10
2022-10-11T18:43:19.821Z,32.09
2022-10-11T18:45:50.324Z,32.09
2022-10-11T18:48:20.803Z,32.08
2022-10-11T18:50:51.880Z,32.08
2022-10-11T18:53:22.360Z,32.08
2022-10-11T18:56:00.741Z,32.07
2022-10-11T18:58:33.067Z,32.07
2022-10-11T19:01:08.629Z,32.05
2022-10-11T19:03:39.335Z,32.05
2022-10-11T19:06:13.308Z,32.05
2022-10-11T19:08:43.623Z,32.04
2022-10-11T19:11:17.257Z,32.03
2022-10-11T19:13:47.573Z,32.02
2022-10-11T19:16:20.433Z,32.02
2022-10-11T19:18:52.759Z,32.01
2022-10-11T19:21:23.512Z,32.00
2022-10-11T19:23:54.370Z,32.00
2022-10-11T19:26:29.559Z,32.00
2022-10-11T19:29:02.524Z,31.99
2022-10-11T19:31:33.483Z,31.99
2022-10-11T19:34:03.790Z,31.98
2022-10-11T19:36:36.666Z,31.97
2022-10-11T19:39:08.333Z,31.98
2022-10-11T19:41:40.594Z,31.97
2022-10-11T19:44:11.131Z,31.95
2022-10-11T19:46:51.430Z,31.94
2022-10-11T19:49:25.389Z,31.93
2022-10-11T19:51:56.293Z,31.93
2022-10-11T19:54:26.847Z,31.92
2022-10-11T19:56:58.645Z,31.91
2022-10-11T19:59:29.116Z,31.90
2022-10-11T20:01:59.055Z,31.91
2022-10-11T20:07:19.937Z,31.87
2022-10-11T20:09:50.372Z,31.86
2022-10-11T20:12:22.767Z,31.86
2022-10-11T20:14:53.121Z,31.85
2022-10-11T20:17:43.318Z,31.86
2022-10-11T20:20:13.813Z,31.84
2022-10-11T20:22:44.540Z,31.83
2022-10-11T20:25:15.153Z,31.83
2022-10-11T20:27:47.463Z,31.83
2022-10-11T20:30:17.959Z,31.81
2022-10-11T20:32:47.898Z,31.81
2022-10-11T20:35:18.430Z,31.81
2022-10-11T20:37:48.565Z,31.81
2022-10-11T20:40:19.002Z,31.82
2022-10-11T20:42:50.767Z,31.81
2022-10-11T20:45:20.989Z,31.81
2022-10-11T20:47:51.365Z,31.81
2022-10-11T20:50:23.224Z,31.81
2022-10-11T20:52:53.570Z,31.81
2022-10-11T20:55:23.591Z,31.80
2022-10-11T20:57:57.140Z,31.80
2022-10-11T21:00:27.518Z,31.79
2022-10-11T21:02:57.836Z,31.79
2022-10-11T21:05:27.987Z,31.79
2022-10-11T21:07:59.234Z,31.77
2022-10-11T21:10:29.671Z,31.77
2022-10-11T21:13:02.607Z,31.76
2022-10-11T21:15:34.047Z,31.74
2022-10-11T21:18:04.485Z,31.72
2022-10-11T21:20:34.203Z,31.72
2022-10-11T21:23:04.782Z,31.71
2022-10-11T21:25:37.050Z,31.70
2022-10-11T21:28:09.962Z,31.68
2022-10-11T21:30:40.422Z,31.68
2022-10-11T21:33:10.842Z,31.67
2022-10-11T21:35:42.479Z,31.66
2022-10-11T21:38:14.413Z,31.65
2022-10-11T21:40:44.769Z,31.63
2022-10-11T21:43:16.778Z,31.60
2022-10-11T21:45:46.716Z,31.59
2022-10-11T21:48:17.169Z,31.58
2022-10-11T21:50:53.634Z,31.56
2022-10-11T21:53:23.662Z,31.54
2022-10-11T21:56:00.328Z,31.52
2022-10-11T21:58:32.098Z,31.50
2022-10-11T22:01:02.351Z,31.47
2022-10-11T22:03:32.017Z,31.46
2022-10-11T22:06:05.232Z,31.44
2022-10-11T22:08:36.116Z,31.40
2022-10-11T22:11:06.930Z,31.38
2022-10-11T22:13:39.025Z,31.36
2022-10-11T22:16:12.502Z,31.33
2022-10-11T22:18:43.756Z,31.32
2022-10-11T22:21:26.229Z,31.31
2022-10-11T22:23:57.554Z,31.29
2022-10-11T22:26:32.311Z,31.26
2022-10-11T22:29:03.940Z,31.25
2022-10-11T22:31:34.698Z,31.25
2022-10-11T22:34:06.021Z,31.22
2022-10-11T22:36:36.484Z,31.21
2022-10-11T22:39:08.513Z,31.18
2022-10-11T22:41:39.736Z,31.16
2022-10-11T22:44:13.239Z,31.13
2022-10-11T22:46:43.747Z,31.11
2022-10-11T22:49:13.684Z,31.08
2022-10-11T22:51:44.697Z,31.04
2022-10-11T22:54:14.809Z,30.98
2022-10-11T22:56:44.922Z,30.95
2022-10-11T22:59:17.601Z,30.90
2022-10-11T23:01:47.981Z,30.86
2022-10-11T23:04:19.697Z,30.82
2022-10-11T23:06:50.088Z,30.78
2022-10-11T23:09:20.290Z,30.75
2022-10-11T23:11:50.149Z,30.74
2022-10-11T23:14:22.296Z,30.73
2022-10-11T23:16:54.125Z,30.72
2022-10-11T23:19:24.119Z,30.71
2022-10-11T23:21:54.395Z,30.70
2022-10-11T23:24:24.691Z,30.67
2022-10-11T23:26:55.046Z,30.66
2022-10-11T23:29:27.405Z,30.63
2022-10-11T23:31:57.524Z,30.61
2022-10-11T23:34:27.629Z,30.61
2022-10-11T23:36:57.626Z,30.61
2022-10-11T23:39:28.000Z,30.61
2022-10-11T23:41:58.701Z,30.59
2022-10-11T23:44:30.302Z,30.59
2022-10-11T23:47:00.476Z,30.57
2022-10-11T23:49:30.254Z,30.57
2022-10-11T23:52:00.660Z,30.56
2022-10-11T23:54:31.179Z,30.55
2022-10-11T23:57:01.134Z,30.56
2022-10-11T23:59:33.176Z,30.54
